FAWB/PRY METAR and TAF weather

Enter ICAO airport designator
Station Type Date Time Source
FAWB METAR 2020/09/22 07:00 UTC NOAA

FAWB 220700Z AUTO 10008KT //// // ////// 16/08 Q1030


Station Type Date Time Source
FAWB Decoded METAR 2020/09/22 07:00 UTC NOAA

Wonderboom / Pretoria, South Africa (FAWB) 25-39S 028-13E
Sep 22, 2020 - 03:00 AM EDT / 2020.09.22 0700 UTC
Wind: from the E (100 degrees) at 9 MPH (8 KT):0
Temperature: 60 F (16 C)
Dew Point: 46 F (8 C)
Relative Humidity: 58%
Pressure (altimeter): 30.42 in. Hg (1030 hPa)
ob: FAWB 220700Z AUTO 10008KT //// // ////// 16/08 Q1030
cycle: 7

Station Type Date Time Source
FAWB TAF 2019/01/10 10:00 UTC NOAA

TAF FAWB 101000Z 1010/1018 30007KT CAVOK
BECMG 1014/1016 SCT035 PROB30
TEMPO 1016/1018 -TSRA FEW040CB TX31/1013Z TN26/1018Z

Example: see airport list